createdAt,value
2022-10-28T00:01:31.408Z,8.75
2022-10-28T00:04:00.422Z,8.79
2022-10-28T00:06:28.596Z,8.81
2022-10-28T00:08:56.073Z,8.85
2022-10-28T00:11:24.910Z,8.86
2022-10-28T00:13:55.544Z,8.88
2022-10-28T00:16:24.432Z,8.90
2022-10-28T00:18:53.937Z,8.96
2022-10-28T00:21:27.377Z,8.96
2022-10-28T00:23:54.331Z,8.97
2022-10-28T00:26:25.386Z,9.02
2022-10-28T00:28:59.462Z,8.98
2022-10-28T00:31:27.611Z,8.97
2022-10-28T00:33:55.082Z,8.97
2022-10-28T00:36:23.536Z,9.01
2022-10-28T00:38:51.510Z,9.16
2022-10-28T00:41:22.587Z,9.30
2022-10-28T00:43:53.769Z,9.55
2022-10-28T00:46:26.913Z,9.78
2022-10-28T00:49:03.092Z,9.82
2022-10-28T00:51:31.643Z,9.78
2022-10-28T00:53:59.334Z,9.72
2022-10-28T00:56:28.600Z,9.63
2022-10-28T00:58:56.387Z,9.57
2022-10-28T01:01:23.660Z,9.48
2022-10-28T01:03:51.078Z,9.48
2022-10-28T01:06:18.458Z,9.43
2022-10-28T01:08:45.367Z,9.49
2022-10-28T01:11:18.475Z,9.50
2022-10-28T01:14:04.185Z,9.56
2022-10-28T01:16:37.579Z,9.63
2022-10-28T01:19:13.291Z,9.78
2022-10-28T01:21:59.659Z,9.80
2022-10-28T01:24:45.060Z,9.84
2022-10-28T01:27:30.171Z,9.97
2022-10-28T01:30:06.759Z,10.13
2022-10-28T01:32:52.538Z,10.28
2022-10-28T01:35:24.011Z,10.25
2022-10-28T01:37:51.736Z,10.30
2022-10-28T01:40:18.959Z,10.21
2022-10-28T01:42:50.212Z,10.07
2022-10-28T01:45:33.533Z,10.00
2022-10-28T01:48:01.880Z,9.87
2022-10-28T01:50:51.632Z,9.77
2022-10-28T01:53:21.048Z,9.67
2022-10-28T01:55:50.772Z,9.59
2022-10-28T01:58:19.031Z,9.61
2022-10-28T02:00:46.808Z,9.62
2022-10-28T02:03:13.768Z,9.64
2022-10-28T02:05:43.882Z,9.62
2022-10-28T02:08:21.814Z,9.62
2022-10-28T02:11:01.228Z,9.58
2022-10-28T02:13:35.381Z,9.63
2022-10-28T02:16:19.660Z,9.61
2022-10-28T02:18:46.625Z,9.56
2022-10-28T02:21:32.344Z,9.43
2022-10-28T02:24:09.374Z,9.36
2022-10-28T02:26:47.159Z,9.13
2022-10-28T02:29:20.396Z,9.25
2022-10-28T02:31:50.599Z,9.40
2022-10-28T02:34:23.722Z,9.48
2022-10-28T02:36:53.027Z,9.50
2022-10-28T02:39:22.644Z,9.51
2022-10-28T02:41:54.540Z,9.45
2022-10-28T02:44:25.256Z,9.44
2022-10-28T02:46:53.996Z,9.40
2022-10-28T02:49:21.527Z,9.33
2022-10-28T02:51:57.238Z,9.27
2022-10-28T02:54:29.602Z,9.25
2022-10-28T02:57:17.007Z,9.19
2022-10-28T02:59:43.963Z,9.05
2022-10-28T03:02:11.138Z,8.84
2022-10-28T03:04:38.033Z,8.89
2022-10-28T03:07:05.205Z,8.75
2022-10-28T03:09:32.706Z,8.87
2022-10-28T03:11:59.772Z,9.06
2022-10-28T03:14:26.790Z,9.09
2022-10-28T03:16:53.877Z,9.24
2022-10-28T03:19:20.704Z,9.30
2022-10-28T03:21:47.918Z,9.35
2022-10-28T03:24:14.954Z,9.40
2022-10-28T03:26:42.201Z,9.43
2022-10-28T03:29:09.109Z,9.30
2022-10-28T03:31:36.338Z,9.39
2022-10-28T03:34:03.650Z,9.36
2022-10-28T03:36:30.755Z,9.26
2022-10-28T03:38:57.799Z,9.30
2022-10-28T03:41:24.948Z,9.31
2022-10-28T03:43:52.113Z,9.27
2022-10-28T03:46:19.430Z,9.29
2022-10-28T03:48:46.238Z,9.25
2022-10-28T03:51:13.308Z,9.26
2022-10-28T03:53:40.115Z,9.17
2022-10-28T03:56:07.428Z,9.28
2022-10-28T03:58:37.289Z,9.24
2022-10-28T04:01:07.309Z,9.27
2022-10-28T04:03:34.237Z,9.18
2022-10-28T04:06:01.550Z,9.11
2022-10-28T04:08:28.625Z,9.09
2022-10-28T04:10:55.913Z,9.11
2022-10-28T04:13:22.798Z,9.07
2022-10-28T04:15:49.838Z,8.99
2022-10-28T04:18:16.763Z,8.85
2022-10-28T04:20:45.049Z,8.99
2022-10-28T04:23:15.755Z,8.98
2022-10-28T04:25:43.826Z,8.97
2022-10-28T04:28:10.695Z,8.95
2022-10-28T04:30:37.904Z,8.97
2022-10-28T04:33:04.897Z,8.77
2022-10-28T04:35:31.956Z,8.72
2022-10-28T04:37:58.772Z,8.60
2022-10-28T04:40:26.042Z,8.78
2022-10-28T04:42:52.938Z,8.86
2022-10-28T04:45:20.187Z,8.87
2022-10-28T04:47:47.043Z,8.76
2022-10-28T04:50:14.474Z,8.79
2022-10-28T04:52:41.370Z,8.84
2022-10-28T04:55:08.887Z,8.65
2022-10-28T04:57:35.874Z,8.54
2022-10-28T05:00:03.104Z,8.52
2022-10-28T05:02:30.122Z,8.48
2022-10-28T05:05:00.551Z,8.41
2022-10-28T05:07:27.360Z,8.35
2022-10-28T05:09:54.470Z,8.37
2022-10-28T05:12:21.362Z,8.50
2022-10-28T05:14:51.184Z,8.54
2022-10-28T05:17:20.031Z,8.50
2022-10-28T05:19:47.066Z,8.48
2022-10-28T05:22:13.931Z,8.44
2022-10-28T05:24:41.446Z,8.33
2022-10-28T05:27:08.491Z,8.31
2022-10-28T05:29:35.718Z,8.24
2022-10-28T05:32:02.712Z,8.01
2022-10-28T05:34:29.872Z,8.01
2022-10-28T05:36:56.788Z,7.96
2022-10-28T05:39:24.215Z,7.86
2022-10-28T05:41:51.326Z,7.93
2022-10-28T05:44:18.477Z,7.89
2022-10-28T05:46:45.710Z,7.91
2022-10-28T05:49:12.822Z,7.87
2022-10-28T05:51:39.657Z,7.81
2022-10-28T05:54:06.925Z,7.82
2022-10-28T05:56:33.991Z,7.89
2022-10-28T05:59:01.065Z,7.99
2022-10-28T06:01:28.016Z,8.01
2022-10-28T06:03:55.304Z,8.13
2022-10-28T06:06:22.295Z,8.24
2022-10-28T06:08:50.211Z,8.24
2022-10-28T06:11:16.092Z,8.21
2022-10-28T06:13:43.530Z,8.25
2022-10-28T06:16:10.440Z,8.16
2022-10-28T06:18:37.562Z,8.25
2022-10-28T06:21:04.728Z,8.32
2022-10-28T06:23:32.147Z,8.46
2022-10-28T06:26:00.656Z,8.38
2022-10-28T06:28:28.191Z,8.51
2022-10-28T06:31:04.830Z,8.49
2022-10-28T06:33:32.325Z,8.57
2022-10-28T06:35:59.975Z,8.68
2022-10-28T06:38:27.739Z,8.81
2022-10-28T06:40:57.362Z,8.91
2022-10-28T06:43:25.347Z,8.99
2022-10-28T06:45:55.673Z,9.00
2022-10-28T06:48:24.678Z,9.16
2022-10-28T06:50:51.803Z,9.32
2022-10-28T06:53:19.296Z,9.49
2022-10-28T06:55:52.426Z,9.62
2022-10-28T06:58:20.047Z,9.82
2022-10-28T07:00:50.547Z,10.04
2022-10-28T07:03:19.130Z,10.20
2022-10-28T07:05:47.689Z,10.21
2022-10-28T07:08:15.060Z,10.22
2022-10-28T07:10:42.545Z,10.43
2022-10-28T07:13:09.517Z,10.57
2022-10-28T07:15:36.947Z,10.77
2022-10-28T07:18:04.176Z,10.74
2022-10-28T07:20:33.813Z,10.77
2022-10-28T07:23:02.621Z,10.79
2022-10-28T07:25:32.454Z,10.83
2022-10-28T07:28:00.335Z,10.90
2022-10-28T07:30:28.243Z,10.96
2022-10-28T07:32:55.708Z,11.03
2022-10-28T07:35:23.008Z,11.20
2022-10-28T07:37:49.939Z,11.21
2022-10-28T07:40:17.147Z,11.33
2022-10-28T07:42:44.553Z,11.52
2022-10-28T07:45:11.926Z,11.65
2022-10-28T07:47:39.101Z,11.73
2022-10-28T07:50:07.178Z,11.87
2022-10-28T07:52:37.688Z,11.90
2022-10-28T07:55:05.903Z,11.83
2022-10-28T07:57:33.986Z,11.91
2022-10-28T08:00:01.527Z,12.04
2022-10-28T08:02:28.848Z,12.02
2022-10-28T08:04:56.972Z,12.18
2022-10-28T08:07:23.767Z,12.30
2022-10-28T08:09:52.453Z,12.39
2022-10-28T08:12:19.562Z,12.37
2022-10-28T08:14:46.947Z,12.58
2022-10-28T08:17:13.820Z,12.88
2022-10-28T08:19:40.991Z,13.18
2022-10-28T08:22:08.155Z,13.25
2022-10-28T08:24:35.374Z,13.35
2022-10-28T08:27:02.498Z,13.39
2022-10-28T08:29:30.138Z,13.40
2022-10-28T08:31:58.053Z,13.22
2022-10-28T08:34:29.975Z,13.21
2022-10-28T08:36:57.847Z,13.32
2022-10-28T08:39:26.158Z,13.67
2022-10-28T08:41:53.100Z,14.35
2022-10-28T08:44:23.413Z,15.13
2022-10-28T08:46:56.403Z,15.57
2022-10-28T08:49:24.399Z,16.16
2022-10-28T08:51:54.741Z,16.32
2022-10-28T08:54:26.044Z,16.21
2022-10-28T08:56:55.317Z,16.02
2022-10-28T08:59:27.162Z,15.92
2022-10-28T09:01:59.891Z,15.75
2022-10-28T09:04:36.127Z,15.67
2022-10-28T09:07:03.288Z,15.63
2022-10-28T09:09:31.076Z,15.57
2022-10-28T09:12:07.717Z,15.67
2022-10-28T09:14:41.482Z,15.65
2022-10-28T09:17:08.315Z,15.80
2022-10-28T09:19:41.569Z,15.64
2022-10-28T09:22:20.759Z,16.04
2022-10-28T09:24:56.210Z,16.40
2022-10-28T09:27:29.061Z,16.75
2022-10-28T09:29:58.887Z,16.58
2022-10-28T09:32:46.824Z,16.90
2022-10-28T09:35:15.894Z,16.99
2022-10-28T09:37:52.762Z,16.90
2022-10-28T09:40:25.124Z,16.18
2022-10-28T09:43:07.222Z,15.93
2022-10-28T09:45:37.475Z,16.24
2022-10-28T09:48:33.750Z,16.08
2022-10-28T09:51:01.289Z,16.29
2022-10-28T09:53:36.173Z,16.24
2022-10-28T09:56:04.756Z,16.25
2022-10-28T09:58:32.217Z,15.97
2022-10-28T10:00:59.461Z,15.83
2022-10-28T10:03:26.326Z,15.78
2022-10-28T10:05:56.964Z,16.00
2022-10-28T10:08:24.395Z,16.22
2022-10-28T10:11:12.148Z,16.27
2022-10-28T10:13:41.274Z,16.65
2022-10-28T10:16:24.275Z,16.40
2022-10-28T10:18:53.384Z,16.45
2022-10-28T10:21:40.360Z,16.47
2022-10-28T10:24:25.840Z,16.41
2022-10-28T10:26:53.571Z,16.18
2022-10-28T10:29:20.994Z,16.15
2022-10-28T10:31:48.509Z,15.95
2022-10-28T10:34:22.751Z,16.10
2022-10-28T10:36:51.616Z,16.02
2022-10-28T10:39:22.424Z,15.91
2022-10-28T10:41:49.601Z,16.10
2022-10-28T10:44:16.494Z,16.20
2022-10-28T10:46:43.577Z,16.32
2022-10-28T10:49:15.054Z,16.47
2022-10-28T10:51:51.158Z,16.54
2022-10-28T10:54:19.300Z,16.36
2022-10-28T10:56:46.513Z,16.22
2022-10-28T10:59:31.781Z,16.29
2022-10-28T11:01:59.869Z,16.21
2022-10-28T11:04:27.903Z,16.24
2022-10-28T11:06:58.937Z,16.29
2022-10-28T11:09:37.039Z,16.36
2022-10-28T11:12:24.413Z,16.39
2022-10-28T11:14:55.842Z,16.45
2022-10-28T11:20:25.619Z,16.92
2022-10-28T11:22:54.490Z,17.09
2022-10-28T11:25:38.612Z,17.40
2022-10-28T11:28:22.197Z,17.56
2022-10-28T11:30:49.290Z,17.48
2022-10-28T11:33:29.840Z,17.37
2022-10-28T11:36:04.026Z,17.07
2022-10-28T11:38:33.921Z,17.10
2022-10-28T11:41:21.454Z,17.04
2022-10-28T11:43:52.155Z,16.91
2022-10-28T11:46:40.055Z,16.75
2022-10-28T11:49:20.557Z,16.74
2022-10-28T11:51:56.693Z,16.88
2022-10-28T11:54:26.367Z,17.09
2022-10-28T11:57:13.981Z,17.30
2022-10-28T11:59:56.200Z,17.51
2022-10-28T12:02:42.272Z,17.56
2022-10-28T12:05:18.293Z,17.30
2022-10-28T12:07:48.326Z,17.28
2022-10-28T12:10:21.121Z,17.10
2022-10-28T12:12:54.562Z,16.95
2022-10-28T12:15:40.657Z,17.00
2022-10-28T12:18:15.591Z,17.16
2022-10-28T12:20:42.436Z,17.16
2022-10-28T12:23:14.199Z,17.33
2022-10-28T12:25:42.969Z,17.42
2022-10-28T12:28:25.309Z,17.29
2022-10-28T12:30:53.565Z,17.40
2022-10-28T12:33:24.522Z,17.48
2022-10-28T12:36:10.105Z,17.49
2022-10-28T12:38:43.216Z,17.58
2022-10-28T12:41:25.170Z,17.72
2022-10-28T12:44:00.240Z,17.85
2022-10-28T12:49:23.420Z,17.69
2022-10-28T12:51:51.551Z,17.77
2022-10-28T12:54:27.438Z,17.66
2022-10-28T12:57:04.550Z,17.71
2022-10-28T12:59:32.161Z,17.62
2022-10-28T13:02:01.634Z,17.58
2022-10-28T13:04:29.803Z,17.57
2022-10-28T13:07:00.194Z,17.53
2022-10-28T13:09:39.352Z,17.71
2022-10-28T13:12:14.863Z,17.71
2022-10-28T13:15:12.143Z,17.73
2022-10-28T13:17:58.206Z,17.83
2022-10-28T13:20:43.930Z,17.67
2022-10-28T13:23:10.881Z,17.71
2022-10-28T13:25:47.212Z,17.55
2022-10-28T13:28:15.754Z,17.62
2022-10-28T13:30:59.811Z,17.75
2022-10-28T13:33:28.026Z,17.96
2022-10-28T13:36:07.534Z,18.22
2022-10-28T13:38:35.159Z,18.34
2022-10-28T13:41:02.224Z,18.31
2022-10-28T13:43:47.535Z,18.29
2022-10-28T13:46:34.501Z,18.03
2022-10-28T13:49:30.761Z,17.98
2022-10-28T13:52:07.058Z,17.91
2022-10-28T13:54:43.346Z,17.91
2022-10-28T13:57:16.411Z,17.94
2022-10-28T13:59:56.481Z,17.86
2022-10-28T14:02:37.766Z,17.82
2022-10-28T14:05:09.943Z,17.57
2022-10-28T14:07:40.888Z,17.54
2022-10-28T14:10:20.716Z,17.47
2022-10-28T14:12:50.873Z,17.35
2022-10-28T14:15:19.641Z,17.39
2022-10-28T14:18:29.663Z,17.25
2022-10-28T14:20:59.273Z,17.18
2022-10-28T14:23:29.382Z,17.12
2022-10-28T14:25:56.421Z,17.21
2022-10-28T14:28:32.439Z,17.12
2022-10-28T14:31:08.582Z,17.03
2022-10-28T14:33:35.437Z,17.05
2022-10-28T14:36:08.629Z,17.11
2022-10-28T14:38:55.046Z,17.18
2022-10-28T14:41:34.868Z,17.10
2022-10-28T14:44:20.491Z,17.06
2022-10-28T14:47:26.132Z,16.93
2022-10-28T14:50:04.023Z,16.89
2022-10-28T14:52:34.628Z,16.83
2022-10-28T14:55:03.052Z,16.70
2022-10-28T14:57:33.908Z,16.75
2022-10-28T15:00:06.702Z,16.66
2022-10-28T15:02:35.757Z,16.52
2022-10-28T15:05:04.635Z,16.53
2022-10-28T15:07:35.637Z,16.51
2022-10-28T15:10:18.938Z,16.35
2022-10-28T15:12:49.073Z,16.33
2022-10-28T15:15:22.323Z,16.28
2022-10-28T15:17:49.743Z,16.21
2022-10-28T15:20:24.497Z,16.08
2022-10-28T15:22:52.313Z,15.93
2022-10-28T15:25:20.827Z,15.99
2022-10-28T15:27:50.964Z,15.84
2022-10-28T15:30:23.445Z,15.84
2022-10-28T15:32:54.794Z,15.79
2022-10-28T15:35:31.343Z,15.81
2022-10-28T15:38:00.234Z,15.86
2022-10-28T15:40:34.185Z,15.83
2022-10-28T15:43:03.432Z,15.71
2022-10-28T15:45:32.691Z,15.69
2022-10-28T15:48:00.406Z,15.68
2022-10-28T15:50:36.817Z,15.58
2022-10-28T15:53:09.945Z,15.54
2022-10-28T15:56:06.909Z,15.39
2022-10-28T15:58:26.971Z,15.51
2022-10-28T16:00:55.651Z,15.53
2022-10-28T16:03:27.119Z,15.53
2022-10-28T16:05:56.115Z,15.44
2022-10-28T16:08:27.957Z,15.46
2022-10-28T16:11:03.302Z,15.53
2022-10-28T16:13:32.829Z,15.37
2022-10-28T16:16:01.814Z,15.24
2022-10-28T16:18:29.692Z,15.25
2022-10-28T16:20:58.416Z,15.32
2022-10-28T16:23:28.117Z,15.33
2022-10-28T16:25:55.227Z,15.21
2022-10-28T16:28:26.380Z,15.11
2022-10-28T16:30:57.564Z,15.15
2022-10-28T16:33:34.788Z,15.16
2022-10-28T16:36:03.428Z,15.21
2022-10-28T16:38:31.354Z,15.16
2022-10-28T16:41:02.878Z,15.04
2022-10-28T16:43:30.567Z,14.98
2022-10-28T16:45:59.364Z,15.01
2022-10-28T16:48:27.585Z,15.06
2022-10-28T16:50:56.123Z,15.18
2022-10-28T16:53:23.066Z,15.14
2022-10-28T16:55:50.384Z,15.10
2022-10-28T16:58:21.880Z,15.10
2022-10-28T17:00:51.967Z,15.08
2022-10-28T17:03:19.299Z,14.95
2022-10-28T17:05:46.873Z,14.88
2022-10-28T17:08:14.649Z,14.89
2022-10-28T17:10:42.643Z,14.87
2022-10-28T17:13:13.696Z,14.86
2022-10-28T17:15:41.705Z,14.85
2022-10-28T17:18:12.649Z,14.89
2022-10-28T17:20:39.790Z,14.79
2022-10-28T17:23:06.678Z,14.76
2022-10-28T17:25:33.987Z,14.81
2022-10-28T17:28:01.122Z,14.77
2022-10-28T17:30:28.487Z,14.80
2022-10-28T17:32:55.442Z,14.76
2022-10-28T17:35:22.988Z,14.75
2022-10-28T17:37:50.105Z,14.66
2022-10-28T17:40:17.360Z,14.66
2022-10-28T17:42:44.196Z,14.68
2022-10-28T17:45:12.000Z,14.62
2022-10-28T17:47:39.218Z,14.68
2022-10-28T17:50:06.668Z,14.60
2022-10-28T17:52:37.394Z,14.61
2022-10-28T17:55:05.995Z,14.55
2022-10-28T17:57:32.957Z,14.63
2022-10-28T18:00:00.508Z,14.53
2022-10-28T18:02:27.403Z,14.50
2022-10-28T18:04:54.737Z,14.48
2022-10-28T18:07:21.708Z,14.54
2022-10-28T18:09:48.946Z,14.47
2022-10-28T18:12:15.886Z,14.43
2022-10-28T18:14:43.323Z,14.53
2022-10-28T18:17:12.743Z,14.53
2022-10-28T18:19:40.020Z,14.60
2022-10-28T18:22:06.922Z,14.58
2022-10-28T18:24:34.197Z,14.59
2022-10-28T18:27:01.329Z,14.59
2022-10-28T18:29:28.945Z,14.58
2022-10-28T18:31:57.050Z,14.61
2022-10-28T18:34:24.963Z,14.59
2022-10-28T18:36:52.243Z,14.59
2022-10-28T18:39:19.546Z,14.55
2022-10-28T18:41:46.839Z,14.51
2022-10-28T18:44:14.750Z,14.48
2022-10-28T18:46:42.453Z,14.45
2022-10-28T18:49:09.426Z,14.44
2022-10-28T18:51:36.746Z,14.50
2022-10-28T18:54:04.000Z,14.43
2022-10-28T18:56:30.942Z,14.44
2022-10-28T18:58:58.777Z,14.40
2022-10-28T19:01:27.664Z,14.50
2022-10-28T19:03:56.476Z,14.53
2022-10-28T19:06:25.103Z,14.47
2022-10-28T19:08:57.441Z,14.49
2022-10-28T19:11:30.506Z,14.58
2022-10-28T19:13:59.425Z,14.62
2022-10-28T19:16:27.714Z,14.66
2022-10-28T19:18:55.675Z,14.59
2022-10-28T19:21:23.293Z,14.47
2022-10-28T19:23:50.459Z,14.51
2022-10-28T19:26:18.482Z,14.55
2022-10-28T19:28:46.771Z,14.52
2022-10-28T19:31:15.446Z,14.53
2022-10-28T19:33:43.585Z,14.52
2022-10-28T19:36:14.672Z,14.54
2022-10-28T19:38:41.646Z,14.52
2022-10-28T19:41:10.440Z,14.47
2022-10-28T19:43:37.455Z,14.46
2022-10-28T19:46:05.579Z,14.46
2022-10-28T19:48:33.022Z,14.40
2022-10-28T19:51:00.566Z,14.33
2022-10-28T19:53:27.719Z,14.33
2022-10-28T19:55:58.572Z,14.35
2022-10-28T19:58:26.779Z,14.31
2022-10-28T20:00:58.914Z,14.35
2022-10-28T20:03:26.409Z,14.34
2022-10-28T20:06:20.922Z,14.31
2022-10-28T20:08:49.587Z,14.28
2022-10-28T20:11:21.469Z,14.30
2022-10-28T20:13:53.296Z,14.34
2022-10-28T20:16:20.669Z,14.29
2022-10-28T20:18:48.375Z,14.28
2022-10-28T20:21:17.315Z,14.25
2022-10-28T20:23:45.718Z,14.21
2022-10-28T20:26:13.786Z,14.17
2022-10-28T20:28:41.231Z,14.17
2022-10-28T20:31:12.515Z,14.16
2022-10-28T20:33:40.810Z,14.11
2022-10-28T20:36:20.742Z,14.17
2022-10-28T20:38:48.224Z,14.10
2022-10-28T20:41:16.633Z,14.07
2022-10-28T20:43:43.997Z,14.08
2022-10-28T20:46:17.493Z,13.96
2022-10-28T20:48:46.195Z,14.01
2022-10-28T20:51:13.948Z,13.93
2022-10-28T20:53:41.698Z,13.94
2022-10-28T20:56:14.832Z,13.90
2022-10-28T20:58:41.949Z,13.83
2022-10-28T21:01:13.300Z,13.82
2022-10-28T21:03:41.213Z,13.78
2022-10-28T21:06:08.373Z,13.76
2022-10-28T21:08:36.214Z,13.71
2022-10-28T21:11:06.982Z,13.73
2022-10-28T21:13:34.595Z,13.69
2022-10-28T21:16:06.708Z,13.65
2022-10-28T21:18:35.162Z,13.66
2022-10-28T21:21:02.157Z,13.60
2022-10-28T21:23:29.468Z,13.63
2022-10-28T21:26:02.980Z,13.67
2022-10-28T21:28:31.221Z,13.59
2022-10-28T21:31:01.711Z,13.59
2022-10-28T21:33:29.108Z,13.52
2022-10-28T21:35:57.409Z,13.51
2022-10-28T21:38:25.417Z,13.54
2022-10-28T21:40:58.675Z,13.52
2022-10-28T21:43:33.494Z,13.48
2022-10-28T21:46:00.384Z,13.55
2022-10-28T21:48:28.504Z,13.50
2022-10-28T21:50:57.210Z,13.49
2022-10-28T21:53:24.636Z,13.50
2022-10-28T21:55:52.357Z,13.57
2022-10-28T21:58:20.302Z,13.44
2022-10-28T22:00:47.195Z,13.39
2022-10-28T22:03:14.282Z,13.47
2022-10-28T22:05:48.878Z,13.38
2022-10-28T22:08:16.253Z,13.45
2022-10-28T22:10:44.269Z,13.38
2022-10-28T22:13:11.452Z,13.38
2022-10-28T22:15:38.593Z,13.30
2022-10-28T22:18:05.889Z,13.33
2022-10-28T22:20:33.909Z,13.32
2022-10-28T22:23:01.435Z,13.34
2022-10-28T22:25:28.276Z,13.27
2022-10-28T22:27:55.484Z,13.28
2022-10-28T22:30:22.329Z,13.29
2022-10-28T22:32:49.156Z,13.25
2022-10-28T22:35:16.309Z,13.21
2022-10-28T22:37:43.304Z,13.18
2022-10-28T22:40:10.549Z,13.15
2022-10-28T22:42:37.816Z,13.21
2022-10-28T22:45:04.856Z,13.21
2022-10-28T22:47:31.990Z,13.24
2022-10-28T22:49:59.030Z,13.23
2022-10-28T22:52:26.335Z,13.26
2022-10-28T22:54:53.159Z,13.19
2022-10-28T22:57:20.258Z,13.22
2022-10-28T22:59:47.185Z,13.20
2022-10-28T23:02:14.077Z,13.16
2022-10-28T23:04:41.334Z,13.18
2022-10-28T23:07:08.253Z,13.19
2022-10-28T23:09:35.243Z,13.16
2022-10-28T23:12:02.524Z,13.12
2022-10-28T23:14:29.555Z,13.11
2022-10-28T23:16:56.500Z,13.06
2022-10-28T23:19:23.774Z,13.18
2022-10-28T23:21:50.647Z,13.10
2022-10-28T23:24:17.680Z,13.13
2022-10-28T23:26:44.875Z,13.21
2022-10-28T23:29:13.366Z,13.34
2022-10-28T23:31:40.433Z,13.22
2022-10-28T23:34:07.601Z,13.30
2022-10-28T23:36:34.973Z,13.16
2022-10-28T23:39:02.149Z,13.10
2022-10-28T23:41:29.145Z,13.05
2022-10-28T23:43:56.001Z,13.08
2022-10-28T23:46:23.511Z,13.09
2022-10-28T23:48:50.345Z,13.08
2022-10-28T23:51:19.412Z,13.12
2022-10-28T23:53:46.529Z,13.03
2022-10-28T23:56:14.440Z,13.05
2022-10-28T23:58:41.228Z,12.96
